sensor_id;sensor_type;location;lat;lon;timestamp;P1;durP1;ratioP1;P2;durP2;ratioP2
20482;SDS011;10400;53.198;6.592;2023-05-10T00:01:37;12.82;;;11.00;;
20482;SDS011;10400;53.198;6.592;2023-05-10T00:04:03;13.00;;;11.23;;
20482;SDS011;10400;53.198;6.592;2023-05-10T00:06:29;12.48;;;10.63;;
20482;SDS011;10400;53.198;6.592;2023-05-10T00:08:55;12.90;;;10.57;;
20482;SDS011;10400;53.198;6.592;2023-05-10T00:11:20;12.35;;;11.05;;
20482;SDS011;10400;53.198;6.592;2023-05-10T00:13:46;14.48;;;11.90;;
20482;SDS011;10400;53.198;6.592;2023-05-10T00:16:12;13.02;;;10.43;;
20482;SDS011;10400;53.198;6.592;2023-05-10T00:18:38;12.32;;;10.85;;
20482;SDS011;10400;53.198;6.592;2023-05-10T00:21:04;14.50;;;11.07;;
20482;SDS011;10400;53.198;6.592;2023-05-10T00:23:31;13.20;;;11.07;;
20482;SDS011;10400;53.198;6.592;2023-05-10T00:25:56;14.82;;;11.05;;
20482;SDS011;10400;53.198;6.592;2023-05-10T00:28:22;12.02;;;10.18;;
20482;SDS011;10400;53.198;6.592;2023-05-10T00:30:48;11.00;;;9.82;;
20482;SDS011;10400;53.198;6.592;2023-05-10T00:33:13;10.95;;;9.63;;
20482;SDS011;10400;53.198;6.592;2023-05-10T00:35:39;10.07;;;8.63;;
20482;SDS011;10400;53.198;6.592;2023-05-10T00:38:05;9.15;;;8.20;;
20482;SDS011;10400;53.198;6.592;2023-05-10T00:40:30;11.63;;;8.00;;
20482;SDS011;10400;53.198;6.592;2023-05-10T00:42:56;9.23;;;8.27;;
20482;SDS011;10400;53.198;6.592;2023-05-10T00:45:23;9.00;;;8.10;;
20482;SDS011;10400;53.198;6.592;2023-05-10T00:47:49;9.73;;;8.25;;
20482;SDS011;10400;53.198;6.592;2023-05-10T00:50:17;8.65;;;7.60;;
20482;SDS011;10400;53.198;6.592;2023-05-10T00:52:43;9.23;;;8.13;;
20482;SDS011;10400;53.198;6.592;2023-05-10T00:55:09;9.60;;;7.20;;
20482;SDS011;10400;53.198;6.592;2023-05-10T00:57:37;7.78;;;6.97;;
20482;SDS011;10400;53.198;6.592;2023-05-10T01:00:02;8.35;;;7.47;;
20482;SDS011;10400;53.198;6.592;2023-05-10T01:02:29;7.93;;;7.13;;
20482;SDS011;10400;53.198;6.592;2023-05-10T01:04:54;7.72;;;6.88;;
20482;SDS011;10400;53.198;6.592;2023-05-10T01:07:20;7.90;;;7.10;;
20482;SDS011;10400;53.198;6.592;2023-05-10T01:09:46;7.60;;;6.80;;
20482;SDS011;10400;53.198;6.592;2023-05-10T01:15:33;7.70;;;6.90;;
20482;SDS011;10400;53.198;6.592;2023-05-10T01:18:00;9.40;;;7.40;;
20482;SDS011;10400;53.198;6.592;2023-05-10T01:20:28;8.10;;;7.22;;
20482;SDS011;10400;53.198;6.592;2023-05-10T01:24:03;8.55;;;6.97;;
20482;SDS011;10400;53.198;6.592;2023-05-10T01:28:58;7.07;;;6.38;;
20482;SDS011;10400;53.198;6.592;2023-05-10T01:34:38;8.45;;;7.55;;
20482;SDS011;10400;53.198;6.592;2023-05-10T01:37:12;8.73;;;7.43;;
20482;SDS011;10400;53.198;6.592;2023-05-10T01:39:55;8.55;;;7.45;;
20482;SDS011;10400;53.198;6.592;2023-05-10T01:42:26;8.50;;;7.53;;
20482;SDS011;10400;53.198;6.592;2023-05-10T01:45:00;8.25;;;7.38;;
20482;SDS011;10400;53.198;6.592;2023-05-10T01:47:43;9.43;;;8.40;;
20482;SDS011;10400;53.198;6.592;2023-05-10T01:50:16;9.38;;;7.95;;
20482;SDS011;10400;53.198;6.592;2023-05-10T01:52:48;9.23;;;8.30;;
20482;SDS011;10400;53.198;6.592;2023-05-10T01:55:18;9.50;;;8.50;;
20482;SDS011;10400;53.198;6.592;2023-05-10T01:57:46;10.40;;;8.88;;
20482;SDS011;10400;53.198;6.592;2023-05-10T02:00:13;9.50;;;8.40;;
20482;SDS011;10400;53.198;6.592;2023-05-10T02:02:42;10.68;;;8.63;;
20482;SDS011;10400;53.198;6.592;2023-05-10T02:05:11;9.77;;;8.70;;
20482;SDS011;10400;53.198;6.592;2023-05-10T02:07:39;10.60;;;8.50;;
20482;SDS011;10400;53.198;6.592;2023-05-10T02:10:06;9.13;;;8.15;;
20482;SDS011;10400;53.198;6.592;2023-05-10T02:12:36;9.13;;;8.05;;
20482;SDS011;10400;53.198;6.592;2023-05-10T02:15:06;10.18;;;8.38;;
20482;SDS011;10400;53.198;6.592;2023-05-10T02:17:32;11.20;;;8.50;;
20482;SDS011;10400;53.198;6.592;2023-05-10T02:20:04;9.65;;;8.00;;
20482;SDS011;10400;53.198;6.592;2023-05-10T02:22:31;9.15;;;8.20;;
20482;SDS011;10400;53.198;6.592;2023-05-10T02:24:58;10.38;;;8.50;;
20482;SDS011;10400;53.198;6.592;2023-05-10T02:27:25;8.95;;;8.05;;
20482;SDS011;10400;53.198;6.592;2023-05-10T02:29:53;10.20;;;9.00;;
20482;SDS011;10400;53.198;6.592;2023-05-10T02:32:19;10.32;;;8.73;;
20482;SDS011;10400;53.198;6.592;2023-05-10T02:34:47;9.88;;;8.88;;
20482;SDS011;10400;53.198;6.592;2023-05-10T02:37:16;11.13;;;8.90;;
20482;SDS011;10400;53.198;6.592;2023-05-10T02:39:46;11.10;;;9.20;;
20482;SDS011;10400;53.198;6.592;2023-05-10T02:42:15;10.02;;;8.95;;
20482;SDS011;10400;53.198;6.592;2023-05-10T02:44:42;12.73;;;9.52;;
20482;SDS011;10400;53.198;6.592;2023-05-10T02:47:10;11.82;;;9.80;;
20482;SDS011;10400;53.198;6.592;2023-05-10T02:49:36;10.40;;;9.00;;
20482;SDS011;10400;53.198;6.592;2023-05-10T02:52:02;15.50;;;10.23;;
20482;SDS011;10400;53.198;6.592;2023-05-10T02:54:33;13.38;;;10.85;;
20482;SDS011;10400;53.198;6.592;2023-05-10T02:57:06;12.13;;;9.88;;
20482;SDS011;10400;53.198;6.592;2023-05-10T02:59:34;13.27;;;11.18;;
20482;SDS011;10400;53.198;6.592;2023-05-10T03:02:00;14.45;;;11.15;;
20482;SDS011;10400;53.198;6.592;2023-05-10T03:04:27;13.23;;;10.65;;
20482;SDS011;10400;53.198;6.592;2023-05-10T03:06:52;14.30;;;11.07;;
20482;SDS011;10400;53.198;6.592;2023-05-10T03:09:18;13.43;;;10.85;;
20482;SDS011;10400;53.198;6.592;2023-05-10T03:12:04;14.55;;;11.30;;
20482;SDS011;10400;53.198;6.592;2023-05-10T03:18:59;14.65;;;11.23;;
20482;SDS011;10400;53.198;6.592;2023-05-10T03:20:59;12.25;;;10.43;;
20482;SDS011;10400;53.198;6.592;2023-05-10T03:23:35;18.67;;;12.35;;
20482;SDS011;10400;53.198;6.592;2023-05-10T03:26:04;14.23;;;11.38;;
20482;SDS011;10400;53.198;6.592;2023-05-10T03:28:32;15.48;;;11.88;;
20482;SDS011;10400;53.198;6.592;2023-05-10T03:30:59;16.00;;;11.45;;
20482;SDS011;10400;53.198;6.592;2023-05-10T03:33:25;15.40;;;12.27;;
20482;SDS011;10400;53.198;6.592;2023-05-10T03:35:50;15.85;;;12.00;;
20482;SDS011;10400;53.198;6.592;2023-05-10T03:38:16;22.30;;;12.73;;
20482;SDS011;10400;53.198;6.592;2023-05-10T03:40:42;14.95;;;11.93;;
20482;SDS011;10400;53.198;6.592;2023-05-10T03:43:07;17.35;;;12.52;;
20482;SDS011;10400;53.198;6.592;2023-05-10T03:45:33;18.48;;;13.52;;
20482;SDS011;10400;53.198;6.592;2023-05-10T03:47:59;17.83;;;12.90;;
20482;SDS011;10400;53.198;6.592;2023-05-10T03:50:24;17.85;;;13.55;;
20482;SDS011;10400;53.198;6.592;2023-05-10T03:52:51;20.33;;;14.00;;
20482;SDS011;10400;53.198;6.592;2023-05-10T03:55:16;22.10;;;14.82;;
20482;SDS011;10400;53.198;6.592;2023-05-10T03:57:42;21.92;;;15.18;;
20482;SDS011;10400;53.198;6.592;2023-05-10T04:00:08;20.15;;;14.00;;
20482;SDS011;10400;53.198;6.592;2023-05-10T04:02:34;22.50;;;15.05;;
20482;SDS011;10400;53.198;6.592;2023-05-10T04:05:00;23.27;;;14.88;;
20482;SDS011;10400;53.198;6.592;2023-05-10T04:07:26;21.67;;;14.60;;
20482;SDS011;10400;53.198;6.592;2023-05-10T04:09:52;25.40;;;15.48;;
20482;SDS011;10400;53.198;6.592;2023-05-10T04:12:17;24.52;;;15.70;;
20482;SDS011;10400;53.198;6.592;2023-05-10T04:14:43;25.00;;;15.10;;
20482;SDS011;10400;53.198;6.592;2023-05-10T04:17:08;25.63;;;15.48;;
20482;SDS011;10400;53.198;6.592;2023-05-10T04:19:35;24.77;;;15.88;;
20482;SDS011;10400;53.198;6.592;2023-05-10T04:22:01;26.85;;;16.15;;
20482;SDS011;10400;53.198;6.592;2023-05-10T04:24:27;25.67;;;16.15;;
20482;SDS011;10400;53.198;6.592;2023-05-10T04:26:56;24.70;;;15.15;;
20482;SDS011;10400;53.198;6.592;2023-05-10T04:29:22;23.92;;;14.43;;
20482;SDS011;10400;53.198;6.592;2023-05-10T04:31:47;26.10;;;15.55;;
20482;SDS011;10400;53.198;6.592;2023-05-10T04:34:13;26.83;;;14.50;;
20482;SDS011;10400;53.198;6.592;2023-05-10T04:36:39;19.73;;;13.13;;
20482;SDS011;10400;53.198;6.592;2023-05-10T04:39:05;15.18;;;10.05;;
20482;SDS011;10400;53.198;6.592;2023-05-10T04:41:31;11.10;;;8.25;;
20482;SDS011;10400;53.198;6.592;2023-05-10T04:43:56;11.30;;;7.22;;
20482;SDS011;10400;53.198;6.592;2023-05-10T04:46:22;9.90;;;6.55;;
20482;SDS011;10400;53.198;6.592;2023-05-10T04:48:48;8.38;;;6.28;;
20482;SDS011;10400;53.198;6.592;2023-05-10T04:51:13;8.50;;;6.10;;
20482;SDS011;10400;53.198;6.592;2023-05-10T04:53:39;8.93;;;5.75;;
20482;SDS011;10400;53.198;6.592;2023-05-10T04:56:05;6.25;;;4.88;;
20482;SDS011;10400;53.198;6.592;2023-05-10T04:58:31;5.00;;;4.38;;
20482;SDS011;10400;53.198;6.592;2023-05-10T05:01:04;6.85;;;4.55;;
20482;SDS011;10400;53.198;6.592;2023-05-10T05:03:31;5.95;;;5.32;;
20482;SDS011;10400;53.198;6.592;2023-05-10T05:05:57;5.20;;;4.70;;
20482;SDS011;10400;53.198;6.592;2023-05-10T05:08:23;6.00;;;4.60;;
20482;SDS011;10400;53.198;6.592;2023-05-10T05:10:49;6.78;;;5.05;;
20482;SDS011;10400;53.198;6.592;2023-05-10T05:13:15;5.80;;;4.65;;
20482;SDS011;10400;53.198;6.592;2023-05-10T05:15:41;7.25;;;4.80;;
20482;SDS011;10400;53.198;6.592;2023-05-10T05:18:06;6.10;;;4.65;;
20482;SDS011;10400;53.198;6.592;2023-05-10T05:20:35;5.20;;;4.55;;
20482;SDS011;10400;53.198;6.592;2023-05-10T05:23:01;5.80;;;4.65;;
20482;SDS011;10400;53.198;6.592;2023-05-10T05:25:26;8.13;;;4.82;;
20482;SDS011;10400;53.198;6.592;2023-05-10T05:27:52;5.93;;;4.90;;
20482;SDS011;10400;53.198;6.592;2023-05-10T05:30:18;5.72;;;4.97;;
20482;SDS011;10400;53.198;6.592;2023-05-10T05:32:44;7.47;;;5.55;;
20482;SDS011;10400;53.198;6.592;2023-05-10T05:35:09;6.18;;;5.13;;
20482;SDS011;10400;53.198;6.592;2023-05-10T05:37:35;7.32;;;5.15;;
20482;SDS011;10400;53.198;6.592;2023-05-10T05:40:02;5.88;;;4.90;;
20482;SDS011;10400;53.198;6.592;2023-05-10T05:42:28;6.45;;;5.20;;
20482;SDS011;10400;53.198;6.592;2023-05-10T05:44:53;8.43;;;5.03;;
20482;SDS011;10400;53.198;6.592;2023-05-10T05:47:19;6.07;;;5.00;;
20482;SDS011;10400;53.198;6.592;2023-05-10T05:49:45;8.02;;;5.30;;
20482;SDS011;10400;53.198;6.592;2023-05-10T05:52:10;7.30;;;5.60;;
20482;SDS011;10400;53.198;6.592;2023-05-10T05:54:36;8.07;;;5.78;;
20482;SDS011;10400;53.198;6.592;2023-05-10T05:57:02;7.53;;;5.32;;
20482;SDS011;10400;53.198;6.592;2023-05-10T05:59:27;9.18;;;6.20;;
20482;SDS011;10400;53.198;6.592;2023-05-10T06:01:53;6.70;;;5.68;;
20482;SDS011;10400;53.198;6.592;2023-05-10T06:04:19;8.60;;;5.82;;
20482;SDS011;10400;53.198;6.592;2023-05-10T06:06:45;7.25;;;5.35;;
20482;SDS011;10400;53.198;6.592;2023-05-10T06:09:11;7.65;;;5.65;;
20482;SDS011;10400;53.198;6.592;2023-05-10T06:11:37;7.88;;;6.28;;
20482;SDS011;10400;53.198;6.592;2023-05-10T06:14:03;6.53;;;5.82;;
20482;SDS011;10400;53.198;6.592;2023-05-10T06:16:29;6.15;;;4.82;;
20482;SDS011;10400;53.198;6.592;2023-05-10T06:18:56;4.75;;;3.45;;
20482;SDS011;10400;53.198;6.592;2023-05-10T06:21:21;5.28;;;3.30;;
20482;SDS011;10400;53.198;6.592;2023-05-10T06:23:47;4.45;;;3.20;;
20482;SDS011;10400;53.198;6.592;2023-05-10T06:26:13;5.72;;;3.08;;
20482;SDS011;10400;53.198;6.592;2023-05-10T06:28:39;3.03;;;2.70;;
20482;SDS011;10400;53.198;6.592;2023-05-10T06:31:05;2.30;;;2.10;;
20482;SDS011;10400;53.198;6.592;2023-05-10T06:33:31;2.35;;;2.00;;
20482;SDS011;10400;53.198;6.592;2023-05-10T06:35:57;2.13;;;1.92;;
20482;SDS011;10400;53.198;6.592;2023-05-10T06:38:23;3.17;;;2.55;;
20482;SDS011;10400;53.198;6.592;2023-05-10T06:40:49;5.47;;;3.40;;
20482;SDS011;10400;53.198;6.592;2023-05-10T06:43:15;5.82;;;4.70;;
20482;SDS011;10400;53.198;6.592;2023-05-10T06:45:40;7.35;;;6.55;;
20482;SDS011;10400;53.198;6.592;2023-05-10T06:48:06;10.32;;;7.88;;
20482;SDS011;10400;53.198;6.592;2023-05-10T06:50:32;9.90;;;8.07;;
20482;SDS011;10400;53.198;6.592;2023-05-10T06:52:58;10.85;;;8.60;;
20482;SDS011;10400;53.198;6.592;2023-05-10T06:55:24;10.80;;;8.73;;
20482;SDS011;10400;53.198;6.592;2023-05-10T06:57:50;11.70;;;9.18;;
20482;SDS011;10400;53.198;6.592;2023-05-10T07:00:16;10.73;;;8.20;;
20482;SDS011;10400;53.198;6.592;2023-05-10T07:02:45;11.13;;;8.50;;
20482;SDS011;10400;53.198;6.592;2023-05-10T07:05:11;9.40;;;7.60;;
20482;SDS011;10400;53.198;6.592;2023-05-10T07:07:40;8.05;;;5.82;;
20482;SDS011;10400;53.198;6.592;2023-05-10T07:10:05;8.50;;;5.60;;
20482;SDS011;10400;53.198;6.592;2023-05-10T07:12:32;8.85;;;6.20;;
20482;SDS011;10400;53.198;6.592;2023-05-10T07:14:58;8.15;;;6.10;;
20482;SDS011;10400;53.198;6.592;2023-05-10T07:17:23;9.55;;;6.20;;
20482;SDS011;10400;53.198;6.592;2023-05-10T07:19:49;6.32;;;5.40;;
20482;SDS011;10400;53.198;6.592;2023-05-10T07:22:15;6.07;;;5.20;;
20482;SDS011;10400;53.198;6.592;2023-05-10T07:24:41;5.72;;;4.93;;
20482;SDS011;10400;53.198;6.592;2023-05-10T07:27:07;6.50;;;4.68;;
20482;SDS011;10400;53.198;6.592;2023-05-10T07:29:34;5.07;;;4.57;;
20482;SDS011;10400;53.198;6.592;2023-05-10T07:32:00;5.35;;;4.63;;
20482;SDS011;10400;53.198;6.592;2023-05-10T07:34:26;5.03;;;4.30;;
20482;SDS011;10400;53.198;6.592;2023-05-10T07:36:52;4.63;;;4.05;;
20482;SDS011;10400;53.198;6.592;2023-05-10T07:39:18;3.78;;;3.45;;
20482;SDS011;10400;53.198;6.592;2023-05-10T07:41:45;4.80;;;3.50;;
20482;SDS011;10400;53.198;6.592;2023-05-10T07:44:11;4.20;;;3.88;;
20482;SDS011;10400;53.198;6.592;2023-05-10T07:46:36;4.53;;;3.80;;
20482;SDS011;10400;53.198;6.592;2023-05-10T07:49:02;3.53;;;3.22;;
20482;SDS011;10400;53.198;6.592;2023-05-10T07:51:28;3.97;;;3.50;;
20482;SDS011;10400;53.198;6.592;2023-05-10T07:53:53;2.90;;;2.70;;
20482;SDS011;10400;53.198;6.592;2023-05-10T07:56:23;4.53;;;2.53;;
20482;SDS011;10400;53.198;6.592;2023-05-10T07:58:50;3.03;;;2.72;;
20482;SDS011;10400;53.198;6.592;2023-05-10T08:01:16;2.63;;;2.42;;
20482;SDS011;10400;53.198;6.592;2023-05-10T08:03:42;3.20;;;2.90;;
20482;SDS011;10400;53.198;6.592;2023-05-10T08:06:08;3.55;;;3.25;;
20482;SDS011;10400;53.198;6.592;2023-05-10T08:08:33;4.97;;;3.42;;
20482;SDS011;10400;53.198;6.592;2023-05-10T08:10:59;4.55;;;4.07;;
20482;SDS011;10400;53.198;6.592;2023-05-10T08:13:25;4.22;;;3.67;;
20482;SDS011;10400;53.198;6.592;2023-05-10T08:15:50;4.60;;;4.13;;
20482;SDS011;10400;53.198;6.592;2023-05-10T08:18:18;4.75;;;3.90;;
20482;SDS011;10400;53.198;6.592;2023-05-10T08:20:47;5.75;;;4.43;;
20482;SDS011;10400;53.198;6.592;2023-05-10T08:23:13;6.25;;;4.07;;
20482;SDS011;10400;53.198;6.592;2023-05-10T08:25:38;5.50;;;4.30;;
20482;SDS011;10400;53.198;6.592;2023-05-10T08:28:04;6.45;;;4.35;;
20482;SDS011;10400;53.198;6.592;2023-05-10T08:30:30;5.63;;;4.22;;
20482;SDS011;10400;53.198;6.592;2023-05-10T08:32:56;6.05;;;3.97;;
20482;SDS011;10400;53.198;6.592;2023-05-10T08:35:21;5.22;;;4.20;;
20482;SDS011;10400;53.198;6.592;2023-05-10T08:37:47;5.93;;;4.40;;
20482;SDS011;10400;53.198;6.592;2023-05-10T08:40:13;6.63;;;4.75;;
20482;SDS011;10400;53.198;6.592;2023-05-10T08:42:42;5.38;;;4.38;;
20482;SDS011;10400;53.198;6.592;2023-05-10T08:45:16;5.05;;;4.25;;
20482;SDS011;10400;53.198;6.592;2023-05-10T08:47:44;5.03;;;4.50;;
20482;SDS011;10400;53.198;6.592;2023-05-10T08:50:10;7.25;;;5.05;;
20482;SDS011;10400;53.198;6.592;2023-05-10T08:52:37;4.90;;;4.40;;
20482;SDS011;10400;53.198;6.592;2023-05-10T08:55:05;7.22;;;4.95;;
20482;SDS011;10400;53.198;6.592;2023-05-10T08:57:31;5.25;;;4.28;;
20482;SDS011;10400;53.198;6.592;2023-05-10T08:59:57;5.63;;;3.67;;
20482;SDS011;10400;53.198;6.592;2023-05-10T09:02:24;5.07;;;4.13;;
20482;SDS011;10400;53.198;6.592;2023-05-10T09:04:50;5.13;;;3.45;;
20482;SDS011;10400;53.198;6.592;2023-05-10T09:07:16;5.75;;;4.32;;
20482;SDS011;10400;53.198;6.592;2023-05-10T09:09:42;6.28;;;3.70;;
20482;SDS011;10400;53.198;6.592;2023-05-10T09:12:09;4.35;;;3.70;;
20482;SDS011;10400;53.198;6.592;2023-05-10T09:14:36;5.78;;;4.45;;
20482;SDS011;10400;53.198;6.592;2023-05-10T09:17:03;6.72;;;4.57;;
20482;SDS011;10400;53.198;6.592;2023-05-10T09:19:29;6.55;;;5.07;;
20482;SDS011;10400;53.198;6.592;2023-05-10T09:21:55;8.65;;;4.60;;
20482;SDS011;10400;53.198;6.592;2023-05-10T09:24:24;6.50;;;4.75;;
20482;SDS011;10400;53.198;6.592;2023-05-10T09:26:51;6.28;;;4.57;;
20482;SDS011;10400;53.198;6.592;2023-05-10T09:29:17;5.85;;;4.70;;
20482;SDS011;10400;53.198;6.592;2023-05-10T09:31:49;6.65;;;4.28;;
20482;SDS011;10400;53.198;6.592;2023-05-10T09:34:49;5.43;;;4.68;;
20482;SDS011;10400;53.198;6.592;2023-05-10T09:37:08;6.65;;;5.18;;
20482;SDS011;10400;53.198;6.592;2023-05-10T09:39:37;6.75;;;4.80;;
20482;SDS011;10400;53.198;6.592;2023-05-10T09:42:05;5.50;;;4.95;;
20482;SDS011;10400;53.198;6.592;2023-05-10T09:44:32;5.15;;;4.25;;
20482;SDS011;10400;53.198;6.592;2023-05-10T09:47:03;6.55;;;4.95;;
20482;SDS011;10400;53.198;6.592;2023-05-10T09:49:31;5.35;;;4.20;;
20482;SDS011;10400;53.198;6.592;2023-05-10T09:54:27;6.82;;;4.90;;
20482;SDS011;10400;53.198;6.592;2023-05-10T09:56:53;6.90;;;4.45;;
20482;SDS011;10400;53.198;6.592;2023-05-10T09:59:19;6.80;;;4.40;;
20482;SDS011;10400;53.198;6.592;2023-05-10T10:01:49;6.32;;;4.20;;
20482;SDS011;10400;53.198;6.592;2023-05-10T10:04:16;4.53;;;4.00;;
20482;SDS011;10400;53.198;6.592;2023-05-10T10:06:42;5.18;;;4.00;;
20482;SDS011;10400;53.198;6.592;2023-05-10T10:09:08;4.38;;;3.63;;
20482;SDS011;10400;53.198;6.592;2023-05-10T10:11:37;4.15;;;3.60;;
20482;SDS011;10400;53.198;6.592;2023-05-10T10:14:04;4.72;;;4.00;;
20482;SDS011;10400;53.198;6.592;2023-05-10T10:16:30;4.85;;;3.63;;
20482;SDS011;10400;53.198;6.592;2023-05-10T10:18:56;6.80;;;4.50;;
20482;SDS011;10400;53.198;6.592;2023-05-10T10:21:22;5.82;;;4.43;;
20482;SDS011;10400;53.198;6.592;2023-05-10T10:23:51;5.28;;;4.28;;
20482;SDS011;10400;53.198;6.592;2023-05-10T10:26:18;5.15;;;4.10;;
20482;SDS011;10400;53.198;6.592;2023-05-10T10:29:00;6.25;;;4.10;;
20482;SDS011;10400;53.198;6.592;2023-05-10T10:34:07;5.13;;;4.00;;
20482;SDS011;10400;53.198;6.592;2023-05-10T10:36:47;5.32;;;4.10;;
20482;SDS011;10400;53.198;6.592;2023-05-10T10:39:14;5.63;;;4.05;;
20482;SDS011;10400;53.198;6.592;2023-05-10T10:44:23;5.18;;;4.20;;
20482;SDS011;10400;53.198;6.592;2023-05-10T10:46:59;5.38;;;4.53;;
20482;SDS011;10400;53.198;6.592;2023-05-10T10:49:42;6.50;;;4.30;;
20482;SDS011;10400;53.198;6.592;2023-05-10T10:55:00;8.10;;;4.78;;
20482;SDS011;10400;53.198;6.592;2023-05-10T11:02:59;6.25;;;5.47;;
20482;SDS011;10400;53.198;6.592;2023-05-10T11:08:31;6.38;;;5.18;;
20482;SDS011;10400;53.198;6.592;2023-05-10T11:13:33;6.57;;;5.03;;
20482;SDS011;10400;53.198;6.592;2023-05-10T11:16:20;6.60;;;5.28;;
20482;SDS011;10400;53.198;6.592;2023-05-10T11:18:57;7.22;;;5.30;;
20482;SDS011;10400;53.198;6.592;2023-05-10T11:21:28;8.88;;;5.68;;
20482;SDS011;10400;53.198;6.592;2023-05-10T11:24:12;8.32;;;5.53;;
20482;SDS011;10400;53.198;6.592;2023-05-10T11:37:00;8.65;;;5.72;;
20482;SDS011;10400;53.198;6.592;2023-05-10T11:39:31;7.85;;;5.85;;
20482;SDS011;10400;53.198;6.592;2023-05-10T11:41:59;8.85;;;5.82;;
20482;SDS011;10400;53.198;6.592;2023-05-10T11:44:31;7.45;;;6.22;;
20482;SDS011;10400;53.198;6.592;2023-05-10T11:47:00;7.97;;;6.70;;
20482;SDS011;10400;53.198;6.592;2023-05-10T11:49:29;11.48;;;7.28;;
20482;SDS011;10400;53.198;6.592;2023-05-10T11:52:12;10.13;;;7.38;;
20482;SDS011;10400;53.198;6.592;2023-05-10T11:54:52;9.88;;;7.22;;
20482;SDS011;10400;53.198;6.592;2023-05-10T11:59:59;9.32;;;6.60;;
20482;SDS011;10400;53.198;6.592;2023-05-10T12:02:25;12.13;;;6.75;;
20482;SDS011;10400;53.198;6.592;2023-05-10T12:04:50;9.75;;;7.10;;
20482;SDS011;10400;53.198;6.592;2023-05-10T12:07:19;9.25;;;6.50;;
20482;SDS011;10400;53.198;6.592;2023-05-10T12:13:16;12.40;;;7.25;;
20482;SDS011;10400;53.198;6.592;2023-05-10T12:15:51;13.70;;;8.30;;
20482;SDS011;10400;53.198;6.592;2023-05-10T12:18:22;10.27;;;7.03;;
20482;SDS011;10400;53.198;6.592;2023-05-10T12:20:51;11.35;;;7.78;;
20482;SDS011;10400;53.198;6.592;2023-05-10T12:23:32;10.60;;;7.47;;
20482;SDS011;10400;53.198;6.592;2023-05-10T12:29:41;11.63;;;8.15;;
20482;SDS011;10400;53.198;6.592;2023-05-10T12:32:15;11.80;;;8.30;;
20482;SDS011;10400;53.198;6.592;2023-05-10T12:44:36;12.32;;;8.32;;
20482;SDS011;10400;53.198;6.592;2023-05-10T12:50:40;16.17;;;8.85;;
20482;SDS011;10400;53.198;6.592;2023-05-10T12:53:12;13.00;;;7.85;;
20482;SDS011;10400;53.198;6.592;2023-05-10T12:55:40;15.55;;;8.00;;
20482;SDS011;10400;53.198;6.592;2023-05-10T12:58:06;12.73;;;7.65;;
20482;SDS011;10400;53.198;6.592;2023-05-10T13:00:37;11.30;;;7.53;;
20482;SDS011;10400;53.198;6.592;2023-05-10T13:03:28;11.45;;;7.28;;
20482;SDS011;10400;53.198;6.592;2023-05-10T13:06:26;13.98;;;7.45;;
20482;SDS011;10400;53.198;6.592;2023-05-10T13:09:07;13.18;;;6.63;;
20482;SDS011;10400;53.198;6.592;2023-05-10T13:11:38;9.80;;;7.20;;
20482;SDS011;10400;53.198;6.592;2023-05-10T13:14:10;10.25;;;7.03;;
20482;SDS011;10400;53.198;6.592;2023-05-10T13:16:39;10.65;;;6.90;;
20482;SDS011;10400;53.198;6.592;2023-05-10T13:19:07;9.07;;;7.25;;
20482;SDS011;10400;53.198;6.592;2023-05-10T13:21:33;12.32;;;6.97;;
20482;SDS011;10400;53.198;6.592;2023-05-10T13:24:12;10.95;;;7.55;;
20482;SDS011;10400;53.198;6.592;2023-05-10T13:26:51;10.50;;;7.80;;
20482;SDS011;10400;53.198;6.592;2023-05-10T13:29:22;9.90;;;7.38;;
20482;SDS011;10400;53.198;6.592;2023-05-10T13:31:48;9.90;;;7.53;;
20482;SDS011;10400;53.198;6.592;2023-05-10T13:34:22;9.25;;;7.55;;
20482;SDS011;10400;53.198;6.592;2023-05-10T13:36:47;12.85;;;8.30;;
20482;SDS011;10400;53.198;6.592;2023-05-10T13:39:24;9.35;;;7.50;;
20482;SDS011;10400;53.198;6.592;2023-05-10T13:41:50;10.90;;;7.60;;
20482;SDS011;10400;53.198;6.592;2023-05-10T13:44:24;10.32;;;7.93;;
20482;SDS011;10400;53.198;6.592;2023-05-10T13:46:53;11.35;;;8.00;;
20482;SDS011;10400;53.198;6.592;2023-05-10T13:49:21;9.80;;;7.10;;
20482;SDS011;10400;53.198;6.592;2023-05-10T13:51:50;10.63;;;7.40;;
20482;SDS011;10400;53.198;6.592;2023-05-10T13:54:16;11.50;;;8.13;;
20482;SDS011;10400;53.198;6.592;2023-05-10T13:56:47;10.43;;;8.02;;
20482;SDS011;10400;53.198;6.592;2023-05-10T13:59:13;11.63;;;8.10;;
20482;SDS011;10400;53.198;6.592;2023-05-10T14:01:42;10.43;;;7.90;;
20482;SDS011;10400;53.198;6.592;2023-05-10T14:04:08;10.10;;;7.30;;
20482;SDS011;10400;53.198;6.592;2023-05-10T14:06:39;13.07;;;7.75;;
20482;SDS011;10400;53.198;6.592;2023-05-10T14:09:07;12.10;;;8.25;;
20482;SDS011;10400;53.198;6.592;2023-05-10T14:11:33;12.30;;;8.05;;
20482;SDS011;10400;53.198;6.592;2023-05-10T14:13:59;11.93;;;8.15;;
20482;SDS011;10400;53.198;6.592;2023-05-10T14:16:28;12.60;;;8.32;;
20482;SDS011;10400;53.198;6.592;2023-05-10T14:18:59;11.30;;;8.05;;
20482;SDS011;10400;53.198;6.592;2023-05-10T14:21:27;9.43;;;7.43;;
20482;SDS011;10400;53.198;6.592;2023-05-10T14:23:54;11.02;;;7.97;;
20482;SDS011;10400;53.198;6.592;2023-05-10T14:26:20;9.43;;;6.80;;
20482;SDS011;10400;53.198;6.592;2023-05-10T14:28:46;11.95;;;8.45;;
20482;SDS011;10400;53.198;6.592;2023-05-10T14:31:12;10.50;;;7.40;;
20482;SDS011;10400;53.198;6.592;2023-05-10T14:33:39;11.07;;;8.10;;
20482;SDS011;10400;53.198;6.592;2023-05-10T14:36:05;10.95;;;8.27;;
20482;SDS011;10400;53.198;6.592;2023-05-10T14:38:31;11.85;;;8.63;;
20482;SDS011;10400;53.198;6.592;2023-05-10T14:40:59;11.07;;;8.45;;
20482;SDS011;10400;53.198;6.592;2023-05-10T15:19:29;10.73;;;7.82;;
20482;SDS011;10400;53.198;6.592;2023-05-10T15:21:55;12.05;;;8.27;;
20482;SDS011;10400;53.198;6.592;2023-05-10T15:24:21;12.88;;;8.45;;
20482;SDS011;10400;53.198;6.592;2023-05-10T15:26:47;11.02;;;8.57;;
20482;SDS011;10400;53.198;6.592;2023-05-10T15:29:12;12.85;;;9.32;;
20482;SDS011;10400;53.198;6.592;2023-05-10T15:31:44;12.07;;;9.02;;
20482;SDS011;10400;53.198;6.592;2023-05-10T15:34:10;12.85;;;9.07;;
20482;SDS011;10400;53.198;6.592;2023-05-10T15:36:36;13.45;;;8.77;;
20482;SDS011;10400;53.198;6.592;2023-05-10T15:39:02;14.02;;;9.73;;
20482;SDS011;10400;53.198;6.592;2023-05-10T15:41:28;12.27;;;9.10;;
20482;SDS011;10400;53.198;6.592;2023-05-10T15:43:54;11.10;;;8.70;;
20482;SDS011;10400;53.198;6.592;2023-05-10T15:46:20;16.10;;;8.77;;
20482;SDS011;10400;53.198;6.592;2023-05-10T15:48:46;11.45;;;9.00;;
20482;SDS011;10400;53.198;6.592;2023-05-10T15:51:12;11.88;;;9.43;;
20482;SDS011;10400;53.198;6.592;2023-05-10T15:53:37;12.88;;;8.77;;
20482;SDS011;10400;53.198;6.592;2023-05-10T15:56:03;13.80;;;9.10;;
20482;SDS011;10400;53.198;6.592;2023-05-10T15:58:29;11.27;;;9.13;;
20482;SDS011;10400;53.198;6.592;2023-05-10T16:00:55;11.52;;;9.20;;
20482;SDS011;10400;53.198;6.592;2023-05-10T16:03:21;13.85;;;9.32;;
20482;SDS011;10400;53.198;6.592;2023-05-10T16:05:47;11.75;;;9.02;;
20482;SDS011;10400;53.198;6.592;2023-05-10T16:08:13;11.38;;;8.82;;
20482;SDS011;10400;53.198;6.592;2023-05-10T16:10:39;10.48;;;8.65;;
20482;SDS011;10400;53.198;6.592;2023-05-10T16:13:04;14.57;;;9.00;;
20482;SDS011;10400;53.198;6.592;2023-05-10T16:15:30;12.48;;;9.13;;
20482;SDS011;10400;53.198;6.592;2023-05-10T16:17:56;10.30;;;8.32;;
20482;SDS011;10400;53.198;6.592;2023-05-10T16:20:22;9.60;;;7.82;;
20482;SDS011;10400;53.198;6.592;2023-05-10T16:22:48;10.00;;;7.85;;
20482;SDS011;10400;53.198;6.592;2023-05-10T16:25:13;8.32;;;6.93;;
20482;SDS011;10400;53.198;6.592;2023-05-10T16:27:39;8.43;;;6.70;;
20482;SDS011;10400;53.198;6.592;2023-05-10T16:30:05;8.73;;;7.00;;